createdAt,value
2023-04-28T00:04:42.691Z,68.87
2023-04-28T00:09:43.589Z,69.52
2023-04-28T00:14:46.312Z,69.57
2023-04-28T00:19:49.512Z,68.89
2023-04-28T00:24:50.459Z,69.05
2023-04-28T00:29:51.420Z,69.68
2023-04-28T00:34:53.534Z,69.62
2023-04-28T00:39:56.393Z,69.49
2023-04-28T00:44:57.320Z,70.14
2023-04-28T00:49:59.496Z,69.89
2023-04-28T00:55:00.558Z,69.94
2023-04-28T01:00:02.179Z,71.18
2023-04-28T01:05:05.105Z,70.93
2023-04-28T01:10:08.169Z,71.02
2023-04-28T01:15:17.811Z,70.78
2023-04-28T01:20:21.056Z,70.53
2023-04-28T01:25:23.158Z,70.07
2023-04-28T01:30:23.849Z,69.75
2023-04-28T01:35:24.654Z,70.57
2023-04-28T01:40:26.745Z,70.45
2023-04-28T01:45:27.386Z,70.77
2023-04-28T01:50:28.049Z,71.47
2023-04-28T01:55:30.030Z,71.76
2023-04-28T02:00:31.890Z,71.59
2023-04-28T02:05:32.866Z,71.93
2023-04-28T02:10:35.186Z,72.33
2023-04-28T02:15:36.229Z,72.51
2023-04-28T02:20:37.012Z,72.89
2023-04-28T02:25:38.968Z,73.00
2023-04-28T02:30:41.964Z,72.87
2023-04-28T02:35:43.159Z,73.39
2023-04-28T02:40:45.167Z,73.39
2023-04-28T02:45:45.837Z,73.53
2023-04-28T02:50:47.092Z,73.46
2023-04-28T02:55:49.710Z,73.47
2023-04-28T03:00:51.604Z,72.54
2023-04-28T03:05:52.537Z,72.40
2023-04-28T03:10:54.669Z,71.89
2023-04-28T03:15:56.151Z,72.02
2023-04-28T03:20:57.190Z,71.33
2023-04-28T03:26:01.407Z,71.30
2023-04-28T03:31:03.440Z,71.09
2023-04-28T03:36:05.636Z,71.25
2023-04-28T03:41:07.772Z,71.99
2023-04-28T03:46:26.978Z,71.65
2023-04-28T03:51:29.058Z,71.77
2023-04-28T03:56:31.504Z,71.15
2023-04-28T04:01:35.258Z,70.36
2023-04-28T04:06:36.016Z,70.42
2023-04-28T04:11:38.470Z,70.00
2023-04-28T04:16:39.223Z,69.93
2023-04-28T04:21:40.028Z,68.73
2023-04-28T04:26:42.794Z,72.25
2023-04-28T04:32:03.863Z,69.34
2023-04-28T04:37:04.724Z,66.52
2023-04-28T04:42:22.666Z,66.85
2023-04-28T04:47:35.355Z,66.53
2023-04-28T04:52:36.240Z,66.17
2023-04-28T04:57:38.749Z,65.49
2023-04-28T05:02:39.702Z,65.39
2023-04-28T05:07:40.770Z,64.12
2023-04-28T05:12:46.797Z,64.16
2023-04-28T05:17:51.599Z,62.48
2023-04-28T05:22:56.361Z,62.88
2023-04-28T05:28:04.954Z,62.55
2023-04-28T05:33:06.877Z,62.61
2023-04-28T05:38:08.231Z,61.08
2023-04-28T05:43:10.454Z,59.33
2023-04-28T05:48:11.483Z,58.29
2023-04-28T05:53:14.427Z,58.31
2023-04-28T05:58:16.514Z,57.64
2023-04-28T06:03:19.273Z,56.37
2023-04-28T06:08:20.642Z,54.75
2023-04-28T06:13:22.748Z,53.42
2023-04-28T06:18:24.564Z,51.69
2023-04-28T06:23:25.301Z,49.58
2023-04-28T06:28:28.271Z,47.68
2023-04-28T06:33:28.915Z,46.08
2023-04-28T06:38:29.588Z,45.20
2023-04-28T06:43:32.376Z,45.66
2023-04-28T06:48:55.995Z,44.32
2023-04-28T06:53:56.745Z,45.29
2023-04-28T06:58:59.053Z,45.36
2023-04-28T07:03:59.810Z,46.01
2023-04-28T07:09:00.639Z,44.72
2023-04-28T07:14:02.634Z,45.39
2023-04-28T07:19:03.517Z,44.74
2023-04-28T07:24:04.310Z,43.87
2023-04-28T07:29:06.397Z,43.08
2023-04-28T07:34:07.253Z,42.61
2023-04-28T07:39:08.015Z,42.76
2023-04-28T07:44:10.427Z,42.79
2023-04-28T07:49:11.183Z,42.02
2023-04-28T07:54:11.971Z,42.28
2023-04-28T07:59:14.003Z,41.94
2023-04-28T08:04:15.174Z,41.49
2023-04-28T08:09:16.373Z,41.34
2023-04-28T08:14:18.648Z,39.78
2023-04-28T08:19:20.179Z,40.99
2023-04-28T08:24:20.811Z,41.61
2023-04-28T08:29:22.996Z,40.81
2023-04-28T08:34:23.638Z,38.90
2023-04-28T08:39:26.428Z,39.78
2023-04-28T08:44:29.034Z,39.65
2023-04-28T08:49:37.176Z,38.10
2023-04-28T08:54:40.523Z,37.35
2023-04-28T08:59:42.857Z,37.66
2023-04-28T09:04:43.927Z,36.82
2023-04-28T09:09:45.351Z,37.38
2023-04-28T09:14:59.410Z,36.56
2023-04-28T09:20:00.057Z,36.53
2023-04-28T09:25:12.392Z,35.88
2023-04-28T09:30:14.812Z,36.47
2023-04-28T09:35:15.524Z,37.08
2023-04-28T09:40:16.792Z,36.22
2023-04-28T09:45:18.915Z,36.19
2023-04-28T09:50:20.284Z,36.56
2023-04-28T09:55:21.373Z,37.23
2023-04-28T10:00:24.711Z,37.03
2023-04-28T10:05:26.109Z,37.32
2023-04-28T10:10:28.316Z,35.72
2023-04-28T10:15:30.391Z,35.91
2023-04-28T10:20:31.309Z,36.36
2023-04-28T10:25:35.976Z,35.44
2023-04-28T10:30:38.145Z,38.92
2023-04-28T10:35:43.856Z,41.50
2023-04-28T10:40:45.820Z,42.84
2023-04-28T10:46:06.256Z,45.43
2023-04-28T10:51:29.904Z,50.21
2023-04-28T10:56:30.607Z,54.31
2023-04-28T11:01:34.952Z,61.24
2023-04-28T11:06:37.484Z,60.55
2023-04-28T11:11:39.533Z,62.92
2023-04-28T11:16:50.476Z,66.53
2023-04-28T11:22:01.998Z,69.21
2023-04-28T11:27:03.287Z,70.36
2023-04-28T11:32:06.247Z,71.56
2023-04-28T11:37:08.627Z,71.43
2023-04-28T11:42:11.446Z,73.07
2023-04-28T11:47:13.490Z,73.88
2023-04-28T11:52:17.043Z,75.29
2023-04-28T11:57:23.213Z,72.41
2023-04-28T12:02:30.302Z,69.12
2023-04-28T12:07:31.328Z,66.40
2023-04-28T12:17:39.955Z,64.39
2023-04-28T12:22:48.347Z,62.90
2023-04-28T12:28:02.301Z,63.17
2023-04-28T12:33:04.714Z,60.09
2023-04-28T12:38:05.854Z,58.04
2023-04-28T12:43:06.602Z,55.57
2023-04-28T12:48:08.806Z,55.19
2023-04-28T12:53:11.654Z,59.40
2023-04-28T12:58:12.434Z,60.36
2023-04-28T13:03:15.858Z,61.30
2023-04-28T13:08:16.798Z,63.49
2023-04-28T13:13:19.728Z,62.98
2023-04-28T13:18:23.494Z,64.94
2023-04-28T13:23:24.338Z,63.70
2023-04-28T13:28:25.572Z,65.03
2023-04-28T13:33:31.251Z,65.30
2023-04-28T13:38:33.056Z,65.95
2023-04-28T13:43:33.986Z,66.16
2023-04-28T13:48:36.688Z,66.53
2023-04-28T13:53:38.029Z,65.20
2023-04-28T13:58:39.036Z,65.67
2023-04-28T14:03:41.526Z,67.73
2023-04-28T14:08:42.309Z,67.06
2023-04-28T14:13:42.977Z,67.16
2023-04-28T14:18:45.078Z,68.74
2023-04-28T14:23:45.783Z,67.72
2023-04-28T14:28:46.482Z,67.76
2023-04-28T14:33:48.460Z,68.73
2023-04-28T14:38:49.136Z,67.66
2023-04-28T14:43:50.017Z,67.43
2023-04-28T14:48:52.461Z,66.62
2023-04-28T14:53:53.131Z,65.96
2023-04-28T14:58:54.240Z,66.78
2023-04-28T15:03:56.924Z,65.90
2023-04-28T15:08:57.735Z,65.82
2023-04-28T15:13:58.382Z,63.80
2023-04-28T15:19:00.380Z,63.42
2023-04-28T15:24:01.106Z,64.52
2023-04-28T15:29:01.831Z,63.25
2023-04-28T15:34:03.849Z,63.03
2023-04-28T15:39:06.304Z,62.49
2023-04-28T15:44:07.452Z,62.80
2023-04-28T15:49:09.891Z,63.02
2023-04-28T15:54:10.630Z,62.66
2023-04-28T15:59:14.913Z,63.62
2023-04-28T16:04:16.965Z,64.32
2023-04-28T16:09:17.777Z,64.55
2023-04-28T16:14:18.458Z,64.41
2023-04-28T16:19:21.038Z,64.51
2023-04-28T16:24:25.177Z,63.36
2023-04-28T16:29:26.498Z,63.27
2023-04-28T16:34:28.486Z,65.19
2023-04-28T16:39:29.136Z,65.13
2023-04-28T16:44:30.521Z,65.58
2023-04-28T16:49:32.581Z,67.40
2023-04-28T16:54:34.002Z,67.44
2023-04-28T16:59:34.698Z,66.39
2023-04-28T17:04:37.815Z,66.98
2023-04-28T17:09:38.669Z,66.56
2023-04-28T17:14:39.535Z,66.27
2023-04-28T17:19:42.226Z,66.19
2023-04-28T17:24:44.695Z,66.23
2023-04-28T17:29:45.440Z,66.11
2023-04-28T17:34:47.490Z,65.75
2023-04-28T17:39:50.499Z,64.82
2023-04-28T17:44:51.850Z,64.97
2023-04-28T17:49:55.399Z,66.19
2023-04-28T17:54:57.390Z,64.91
2023-04-28T17:59:58.028Z,65.27
2023-04-28T18:05:00.027Z,64.88
2023-04-28T18:10:01.015Z,65.42
2023-04-28T18:15:02.518Z,65.17
2023-04-28T18:20:06.977Z,65.62
2023-04-28T18:25:08.497Z,65.51
2023-04-28T18:30:10.286Z,65.51
2023-04-28T18:35:12.649Z,65.54
2023-04-28T18:40:13.365Z,65.93
2023-04-28T18:45:14.923Z,66.20
2023-04-28T18:50:17.057Z,65.54
2023-04-28T18:55:17.750Z,65.69
2023-04-28T19:00:19.101Z,66.63
2023-04-28T19:05:21.089Z,66.29
2023-04-28T19:10:21.901Z,65.96
2023-04-28T19:15:22.601Z,66.52
2023-04-28T19:20:24.803Z,67.11
2023-04-28T19:25:25.543Z,67.39
2023-04-28T19:30:26.784Z,67.57
2023-04-28T19:35:28.905Z,67.77
2023-04-28T19:40:30.442Z,67.77
2023-04-28T19:45:31.085Z,68.06
2023-04-28T19:50:33.578Z,68.33
2023-04-28T19:55:34.243Z,68.89
2023-04-28T20:00:35.953Z,69.09
2023-04-28T20:05:39.739Z,67.99
2023-04-28T20:10:40.804Z,69.08
2023-04-28T20:15:41.889Z,68.96
2023-04-28T20:20:44.507Z,70.15
2023-04-28T20:25:47.051Z,69.96
2023-04-28T20:30:47.683Z,69.80
2023-04-28T20:35:49.726Z,69.71
2023-04-28T20:40:50.432Z,70.73
2023-04-28T20:45:51.125Z,70.29
2023-04-28T20:50:55.204Z,70.14
2023-04-28T20:55:55.990Z,71.13
2023-04-28T21:00:56.664Z,71.27
2023-04-28T21:05:58.673Z,71.46
2023-04-28T21:10:59.346Z,72.32
2023-04-28T21:16:00.158Z,72.41
2023-04-28T21:21:02.195Z,71.52
2023-04-28T21:26:02.959Z,71.57
2023-04-28T21:31:04.937Z,71.38
2023-04-28T21:36:09.042Z,71.58
2023-04-28T21:41:12.305Z,72.01
2023-04-28T21:46:13.361Z,72.27
2023-04-28T21:51:16.440Z,70.79
2023-04-28T21:56:17.309Z,71.39
2023-04-28T22:01:18.452Z,72.05
2023-04-28T22:06:20.962Z,71.69
2023-04-28T22:11:21.628Z,72.29
2023-04-28T22:16:22.687Z,72.16
2023-04-28T22:21:25.365Z,72.37
2023-04-28T22:26:25.992Z,72.78
2023-04-28T22:31:26.660Z,71.83
2023-04-28T22:36:28.761Z,72.69
2023-04-28T22:41:29.409Z,72.10
2023-04-28T22:46:30.415Z,73.15
2023-04-28T22:51:32.724Z,73.52
2023-04-28T22:56:33.433Z,73.33
2023-04-28T23:01:34.205Z,74.31
2023-04-28T23:06:36.824Z,74.06
2023-04-28T23:11:37.479Z,77.51
2023-04-28T23:16:38.312Z,80.29
2023-04-28T23:21:40.327Z,82.40
2023-04-28T23:26:41.209Z,83.92
2023-04-28T23:31:41.970Z,85.35
2023-04-28T23:36:44.069Z,85.33
2023-04-28T23:41:44.735Z,86.44
2023-04-28T23:46:45.354Z,86.84
2023-04-28T23:51:47.348Z,86.78
2023-04-28T23:56:47.995Z,86.71
